This is the latest recevied weather packets stored in our database for station/object KC8YYF. If no packets are shown the sender has not sent any weather packets the latest 10 day(s).
| Time | Temp. | Humidity | Pressure | Rain* | Wind** | Luminosity | Snow |
|---|---|---|---|---|---|---|---|
| 1777305786 | 19.44° C | 60% | 1020.3 hPa | 0 mm | - | 565 W/m² | - |
| 1777305482 | 19.44° C | 60% | 1020.4 hPa | 0 mm | - | 566 W/m² | - |
| 1777305177 | 19.44° C | 61% | 1020.4 hPa | 0 mm | - | 536 W/m² | - |
| 1777304871 | 20° C | 61% | 1020.8 hPa | 0 mm | - | 521 W/m² | - |
| 1777304569 | 18.89° C | 62% | 1020.7 hPa | 0 mm | - | 533 W/m² | - |
| 1777304266 | 18.33° C | 65% | 1020.6 hPa | 0 mm | - | 515 W/m² | - |
| 1777303963 | 18.33° C | 64% | 1020.6 hPa | 0 mm | - | 509 W/m² | - |
| 1777303660 | 18.89° C | 62% | 1020.5 hPa | 0 mm | - | 415 W/m² | - |
| 1777303358 | 18.89° C | 65% | 1020.5 hPa | 0 mm | - | 429 W/m² | - |
| 1777303054 | 17.78° C | 66% | 1020.6 hPa | 0 mm | - | 404 W/m² | - |
| 1777302752 | 17.78° C | 66% | 1020.9 hPa | 0 mm | - | 412 W/m² | - |
| 1777302451 | 17.78° C | 63% | 1020.8 hPa | 0 mm | - | 383 W/m² | - |
| 1777302148 | 16.67° C | 67% | 1020.9 hPa | 0 mm | - | 369 W/m² | - |
| 1777301845 | 17.22° C | 63% | 1020.9 hPa | 0 mm | - | 418 W/m² | - |
| 1777301542 | 17.78° C | 63% | 1020.9 hPa | 0 mm | - | 362 W/m² | - |
| 1777301239 | 17.22° C | 66% | 1021 hPa | 0 mm | - | 449 W/m² | - |
| 1777300936 | 17.22° C | 65% | 1021 hPa | 0 mm | - | 437 W/m² | - |
| 1777300634 | 16.67° C | 67% | 1021 hPa | 0 mm | - | 412 W/m² | - |
| 1777300331 | 16.11° C | 68% | 1021 hPa | 0 mm | - | 404 W/m² | - |
| 1777300028 | 16.67° C | 65% | 1021 hPa | 0 mm | - | 415 W/m² | - |
| 1777299725 | 16.67° C | 66% | 1021 hPa | 0 mm | - | 362 W/m² | - |
| 1777299422 | 15.56° C | 66% | 1021 hPa | 0 mm | - | 402 W/m² | - |
| 1777299120 | 15.56° C | 67% | 1021.1 hPa | 0 mm | - | 399 W/m² | - |
| 1777298817 | 16.11° C | 67% | 1021 hPa | 0 mm | - | 388 W/m² | - |
| 1777298513 | 15° C | 69% | 1021.1 hPa | 0 mm | - | 334 W/m² | - |
* Rain latest hour (hover to see other rain measurements)
** Current wind speed in m/s (hover to see current wind gust speed)